sensor_id;sensor_type;location;lat;lon;timestamp;P1;durP1;ratioP1;P2;durP2;ratioP2
49842;SDS011;55559;48.898;9.184;2022-12-07T00:01:06;13.35;;;8.00;;
49842;SDS011;55559;48.898;9.184;2022-12-07T00:03:35;15.57;;;8.45;;
49842;SDS011;55559;48.898;9.184;2022-12-07T00:06:04;12.38;;;7.50;;
49842;SDS011;55559;48.898;9.184;2022-12-07T00:08:32;11.18;;;8.35;;
49842;SDS011;55559;48.898;9.184;2022-12-07T00:11:02;11.48;;;7.75;;
49842;SDS011;55559;48.898;9.184;2022-12-07T00:13:30;14.25;;;7.97;;
49842;SDS011;55559;48.898;9.184;2022-12-07T00:15:59;16.55;;;7.40;;
49842;SDS011;55559;48.898;9.184;2022-12-07T00:18:28;15.43;;;8.05;;
49842;SDS011;55559;48.898;9.184;2022-12-07T00:20:58;11.68;;;7.22;;
49842;SDS011;55559;48.898;9.184;2022-12-07T00:23:27;11.73;;;7.70;;
49842;SDS011;55559;48.898;9.184;2022-12-07T00:25:54;14.43;;;8.15;;
49842;SDS011;55559;48.898;9.184;2022-12-07T00:28:30;14.43;;;8.50;;
49842;SDS011;55559;48.898;9.184;2022-12-07T00:30:59;16.65;;;9.73;;
49842;SDS011;55559;48.898;9.184;2022-12-07T00:33:31;13.55;;;7.85;;
49842;SDS011;55559;48.898;9.184;2022-12-07T00:35:59;13.35;;;9.18;;
49842;SDS011;55559;48.898;9.184;2022-12-07T00:38:34;13.43;;;9.60;;
49842;SDS011;55559;48.898;9.184;2022-12-07T00:41:04;13.20;;;8.35;;
49842;SDS011;55559;48.898;9.184;2022-12-07T00:43:34;10.70;;;6.80;;
49842;SDS011;55559;48.898;9.184;2022-12-07T00:46:01;12.52;;;7.95;;
49842;SDS011;55559;48.898;9.184;2022-12-07T00:48:29;13.52;;;9.02;;
49842;SDS011;55559;48.898;9.184;2022-12-07T00:50:58;13.07;;;8.07;;
49842;SDS011;55559;48.898;9.184;2022-12-07T00:53:26;11.75;;;7.97;;
49842;SDS011;55559;48.898;9.184;2022-12-07T00:55:54;12.30;;;8.70;;
49842;SDS011;55559;48.898;9.184;2022-12-07T00:58:22;12.15;;;8.35;;
49842;SDS011;55559;48.898;9.184;2022-12-07T01:00:51;11.45;;;8.52;;
49842;SDS011;55559;48.898;9.184;2022-12-07T01:03:18;14.25;;;8.07;;
49842;SDS011;55559;48.898;9.184;2022-12-07T01:05:49;16.17;;;8.30;;
49842;SDS011;55559;48.898;9.184;2022-12-07T01:08:17;12.05;;;8.77;;
49842;SDS011;55559;48.898;9.184;2022-12-07T01:10:45;14.38;;;9.48;;
49842;SDS011;55559;48.898;9.184;2022-12-07T01:13:13;13.30;;;9.43;;
49842;SDS011;55559;48.898;9.184;2022-12-07T01:15:41;18.58;;;9.82;;
49842;SDS011;55559;48.898;9.184;2022-12-07T01:18:10;13.70;;;9.00;;
49842;SDS011;55559;48.898;9.184;2022-12-07T01:20:38;12.20;;;9.18;;
49842;SDS011;55559;48.898;9.184;2022-12-07T01:23:05;16.20;;;10.48;;
49842;SDS011;55559;48.898;9.184;2022-12-07T01:25:33;14.52;;;9.75;;
49842;SDS011;55559;48.898;9.184;2022-12-07T01:28:00;13.60;;;8.65;;
49842;SDS011;55559;48.898;9.184;2022-12-07T01:30:28;14.48;;;9.02;;
49842;SDS011;55559;48.898;9.184;2022-12-07T01:32:55;14.35;;;8.52;;
49842;SDS011;55559;48.898;9.184;2022-12-07T01:35:24;15.07;;;9.80;;
49842;SDS011;55559;48.898;9.184;2022-12-07T01:37:52;13.57;;;9.63;;
49842;SDS011;55559;48.898;9.184;2022-12-07T01:40:19;16.98;;;9.63;;
49842;SDS011;55559;48.898;9.184;2022-12-07T01:42:47;16.58;;;10.52;;
49842;SDS011;55559;48.898;9.184;2022-12-07T01:45:34;15.82;;;9.98;;
49842;SDS011;55559;48.898;9.184;2022-12-07T01:48:05;14.73;;;9.98;;
49842;SDS011;55559;48.898;9.184;2022-12-07T01:50:38;13.95;;;8.90;;
49842;SDS011;55559;48.898;9.184;2022-12-07T01:53:08;13.73;;;9.02;;
49842;SDS011;55559;48.898;9.184;2022-12-07T01:55:37;16.33;;;9.82;;
49842;SDS011;55559;48.898;9.184;2022-12-07T01:58:13;15.13;;;9.05;;
49842;SDS011;55559;48.898;9.184;2022-12-07T02:00:43;13.55;;;9.90;;
49842;SDS011;55559;48.898;9.184;2022-12-07T02:03:11;15.35;;;9.10;;
49842;SDS011;55559;48.898;9.184;2022-12-07T02:05:46;14.93;;;10.05;;
49842;SDS011;55559;48.898;9.184;2022-12-07T02:08:13;14.02;;;9.57;;
49842;SDS011;55559;48.898;9.184;2022-12-07T02:10:41;12.95;;;9.30;;
49842;SDS011;55559;48.898;9.184;2022-12-07T02:13:09;13.38;;;8.80;;
49842;SDS011;55559;48.898;9.184;2022-12-07T02:15:43;12.82;;;8.50;;
49842;SDS011;55559;48.898;9.184;2022-12-07T02:18:20;13.40;;;9.10;;
49842;SDS011;55559;48.898;9.184;2022-12-07T02:20:57;16.60;;;11.18;;
49842;SDS011;55559;48.898;9.184;2022-12-07T02:29:42;16.25;;;9.82;;
49842;SDS011;55559;48.898;9.184;2022-12-07T02:32:22;13.38;;;8.35;;
49842;SDS011;55559;48.898;9.184;2022-12-07T02:34:55;13.32;;;8.55;;
49842;SDS011;55559;48.898;9.184;2022-12-07T02:37:33;16.45;;;10.15;;
49842;SDS011;55559;48.898;9.184;2022-12-07T02:40:12;15.73;;;10.70;;
49842;SDS011;55559;48.898;9.184;2022-12-07T02:42:45;13.65;;;9.10;;
49842;SDS011;55559;48.898;9.184;2022-12-07T02:45:18;17.02;;;9.98;;
49842;SDS011;55559;48.898;9.184;2022-12-07T02:47:51;17.77;;;9.30;;
49842;SDS011;55559;48.898;9.184;2022-12-07T02:50:24;13.15;;;8.65;;
49842;SDS011;55559;48.898;9.184;2022-12-07T02:52:52;12.68;;;8.77;;
49842;SDS011;55559;48.898;9.184;2022-12-07T02:55:23;15.68;;;8.93;;
49842;SDS011;55559;48.898;9.184;2022-12-07T02:58:06;15.15;;;8.63;;
49842;SDS011;55559;48.898;9.184;2022-12-07T03:00:51;15.68;;;8.90;;
49842;SDS011;55559;48.898;9.184;2022-12-07T03:03:23;13.10;;;8.77;;
49842;SDS011;55559;48.898;9.184;2022-12-07T03:05:57;14.80;;;8.30;;
49842;SDS011;55559;48.898;9.184;2022-12-07T03:08:37;13.77;;;9.02;;
49842;SDS011;55559;48.898;9.184;2022-12-07T03:11:12;16.23;;;8.80;;
49842;SDS011;55559;48.898;9.184;2022-12-07T03:13:43;14.00;;;8.27;;
49842;SDS011;55559;48.898;9.184;2022-12-07T03:16:18;11.38;;;8.65;;
49842;SDS011;55559;48.898;9.184;2022-12-07T03:21:20;13.20;;;8.07;;
49842;SDS011;55559;48.898;9.184;2022-12-07T03:23:51;14.43;;;8.27;;
49842;SDS011;55559;48.898;9.184;2022-12-07T03:26:22;17.02;;;9.45;;
49842;SDS011;55559;48.898;9.184;2022-12-07T03:28:56;15.55;;;8.23;;
49842;SDS011;55559;48.898;9.184;2022-12-07T03:31:30;12.40;;;9.18;;
49842;SDS011;55559;48.898;9.184;2022-12-07T03:34:01;13.63;;;9.55;;
49842;SDS011;55559;48.898;9.184;2022-12-07T03:36:32;16.75;;;8.75;;
49842;SDS011;55559;48.898;9.184;2022-12-07T03:39:08;14.45;;;8.70;;
49842;SDS011;55559;48.898;9.184;2022-12-07T03:41:43;14.80;;;8.70;;
49842;SDS011;55559;48.898;9.184;2022-12-07T03:44:12;14.85;;;9.23;;
49842;SDS011;55559;48.898;9.184;2022-12-07T03:46:44;12.15;;;7.72;;
49842;SDS011;55559;48.898;9.184;2022-12-07T03:49:18;14.60;;;9.18;;
49842;SDS011;55559;48.898;9.184;2022-12-07T03:51:54;13.35;;;9.07;;
49842;SDS011;55559;48.898;9.184;2022-12-07T03:54:28;16.90;;;10.55;;
49842;SDS011;55559;48.898;9.184;2022-12-07T03:57:01;15.02;;;9.73;;
49842;SDS011;55559;48.898;9.184;2022-12-07T03:59:31;14.98;;;9.50;;
49842;SDS011;55559;48.898;9.184;2022-12-07T04:02:03;14.10;;;9.57;;
49842;SDS011;55559;48.898;9.184;2022-12-07T04:04:31;16.58;;;11.07;;
49842;SDS011;55559;48.898;9.184;2022-12-07T04:07:00;17.88;;;10.85;;
49842;SDS011;55559;48.898;9.184;2022-12-07T04:09:28;14.82;;;10.45;;
49842;SDS011;55559;48.898;9.184;2022-12-07T04:11:55;18.67;;;11.02;;
49842;SDS011;55559;48.898;9.184;2022-12-07T04:14:23;12.90;;;9.27;;
49842;SDS011;55559;48.898;9.184;2022-12-07T04:16:51;16.35;;;10.85;;
49842;SDS011;55559;48.898;9.184;2022-12-07T04:19:24;14.60;;;10.18;;
49842;SDS011;55559;48.898;9.184;2022-12-07T04:21:53;15.15;;;9.52;;
49842;SDS011;55559;48.898;9.184;2022-12-07T04:24:21;12.93;;;8.73;;
49842;SDS011;55559;48.898;9.184;2022-12-07T04:26:48;16.90;;;9.98;;
49842;SDS011;55559;48.898;9.184;2022-12-07T04:29:16;16.13;;;10.57;;
49842;SDS011;55559;48.898;9.184;2022-12-07T04:31:44;13.77;;;10.00;;
49842;SDS011;55559;48.898;9.184;2022-12-07T04:34:12;19.08;;;11.38;;
49842;SDS011;55559;48.898;9.184;2022-12-07T04:36:42;14.50;;;8.98;;
49842;SDS011;55559;48.898;9.184;2022-12-07T04:41:50;17.00;;;9.77;;
49842;SDS011;55559;48.898;9.184;2022-12-07T04:44:18;18.27;;;10.60;;
49842;SDS011;55559;48.898;9.184;2022-12-07T04:46:46;16.92;;;9.73;;
49842;SDS011;55559;48.898;9.184;2022-12-07T04:49:14;13.07;;;9.43;;
49842;SDS011;55559;48.898;9.184;2022-12-07T04:51:44;14.35;;;9.95;;
49842;SDS011;55559;48.898;9.184;2022-12-07T04:54:12;16.02;;;9.23;;
49842;SDS011;55559;48.898;9.184;2022-12-07T04:56:40;14.63;;;10.05;;
49842;SDS011;55559;48.898;9.184;2022-12-07T04:59:07;13.73;;;10.18;;
49842;SDS011;55559;48.898;9.184;2022-12-07T05:01:36;16.38;;;10.10;;
49842;SDS011;55559;48.898;9.184;2022-12-07T05:04:03;15.85;;;9.77;;
49842;SDS011;55559;48.898;9.184;2022-12-07T05:06:31;14.10;;;9.65;;
49842;SDS011;55559;48.898;9.184;2022-12-07T05:09:03;20.55;;;10.38;;
49842;SDS011;55559;48.898;9.184;2022-12-07T05:11:30;16.48;;;10.35;;
49842;SDS011;55559;48.898;9.184;2022-12-07T05:14:08;18.27;;;10.75;;
49842;SDS011;55559;48.898;9.184;2022-12-07T05:16:37;21.08;;;11.77;;
49842;SDS011;55559;48.898;9.184;2022-12-07T05:19:05;16.80;;;11.20;;
49842;SDS011;55559;48.898;9.184;2022-12-07T05:21:32;14.38;;;9.75;;
49842;SDS011;55559;48.898;9.184;2022-12-07T05:23:59;17.90;;;10.10;;
49842;SDS011;55559;48.898;9.184;2022-12-07T05:26:28;18.15;;;12.00;;
49842;SDS011;55559;48.898;9.184;2022-12-07T05:28:56;15.30;;;11.48;;
49842;SDS011;55559;48.898;9.184;2022-12-07T05:31:27;16.88;;;11.10;;
49842;SDS011;55559;48.898;9.184;2022-12-07T05:33:55;17.95;;;11.30;;
49842;SDS011;55559;48.898;9.184;2022-12-07T05:36:22;19.55;;;12.00;;
49842;SDS011;55559;48.898;9.184;2022-12-07T05:38:50;22.10;;;12.77;;
49842;SDS011;55559;48.898;9.184;2022-12-07T05:41:18;16.95;;;10.93;;
49842;SDS011;55559;48.898;9.184;2022-12-07T05:44:04;21.30;;;10.90;;
49842;SDS011;55559;48.898;9.184;2022-12-07T05:46:32;18.23;;;11.23;;
49842;SDS011;55559;48.898;9.184;2022-12-07T05:49:00;16.55;;;11.48;;
49842;SDS011;55559;48.898;9.184;2022-12-07T05:51:27;15.82;;;11.00;;
49842;SDS011;55559;48.898;9.184;2022-12-07T05:53:59;17.75;;;10.45;;
49842;SDS011;55559;48.898;9.184;2022-12-07T05:56:26;18.60;;;9.95;;
49842;SDS011;55559;48.898;9.184;2022-12-07T05:58:54;24.17;;;10.20;;
49842;SDS011;55559;48.898;9.184;2022-12-07T06:01:40;15.13;;;9.30;;
49842;SDS011;55559;48.898;9.184;2022-12-07T06:04:08;17.35;;;10.63;;
49842;SDS011;55559;48.898;9.184;2022-12-07T06:06:35;15.63;;;10.05;;
49842;SDS011;55559;48.898;9.184;2022-12-07T06:09:03;19.58;;;10.32;;
49842;SDS011;55559;48.898;9.184;2022-12-07T06:11:31;18.25;;;9.63;;
49842;SDS011;55559;48.898;9.184;2022-12-07T06:14:15;17.88;;;9.05;;
49842;SDS011;55559;48.898;9.184;2022-12-07T06:16:44;19.35;;;9.65;;
49842;SDS011;55559;48.898;9.184;2022-12-07T06:19:12;15.13;;;10.40;;
49842;SDS011;55559;48.898;9.184;2022-12-07T06:21:39;17.38;;;10.38;;
49842;SDS011;55559;48.898;9.184;2022-12-07T06:24:06;15.77;;;8.98;;
49842;SDS011;55559;48.898;9.184;2022-12-07T06:26:35;12.70;;;7.50;;
49842;SDS011;55559;48.898;9.184;2022-12-07T06:29:03;12.35;;;7.40;;
49842;SDS011;55559;48.898;9.184;2022-12-07T06:31:30;13.80;;;7.25;;
49842;SDS011;55559;48.898;9.184;2022-12-07T06:34:00;11.50;;;7.60;;
49842;SDS011;55559;48.898;9.184;2022-12-07T06:36:34;12.35;;;7.78;;
49842;SDS011;55559;48.898;9.184;2022-12-07T06:39:02;12.80;;;8.27;;
49842;SDS011;55559;48.898;9.184;2022-12-07T06:41:30;12.57;;;7.35;;
49842;SDS011;55559;48.898;9.184;2022-12-07T06:43:58;12.55;;;8.05;;
49842;SDS011;55559;48.898;9.184;2022-12-07T06:46:25;16.13;;;7.55;;
49842;SDS011;55559;48.898;9.184;2022-12-07T06:48:53;10.38;;;5.60;;
49842;SDS011;55559;48.898;9.184;2022-12-07T06:51:22;11.27;;;5.63;;
49842;SDS011;55559;48.898;9.184;2022-12-07T06:53:49;12.15;;;6.20;;
49842;SDS011;55559;48.898;9.184;2022-12-07T06:56:17;9.52;;;6.20;;
49842;SDS011;55559;48.898;9.184;2022-12-07T06:58:44;9.38;;;5.93;;
49842;SDS011;55559;48.898;9.184;2022-12-07T07:01:12;10.07;;;5.22;;
49842;SDS011;55559;48.898;9.184;2022-12-07T07:03:41;8.88;;;6.18;;
49842;SDS011;55559;48.898;9.184;2022-12-07T07:06:08;6.00;;;4.50;;
49842;SDS011;55559;48.898;9.184;2022-12-07T07:08:38;8.85;;;5.45;;
49842;SDS011;55559;48.898;9.184;2022-12-07T07:11:06;11.77;;;6.40;;
49842;SDS011;55559;48.898;9.184;2022-12-07T07:13:35;10.50;;;5.30;;
49842;SDS011;55559;48.898;9.184;2022-12-07T07:16:02;9.52;;;5.53;;
49842;SDS011;55559;48.898;9.184;2022-12-07T07:18:30;8.65;;;5.47;;
49842;SDS011;55559;48.898;9.184;2022-12-07T07:20:57;7.45;;;4.85;;
49842;SDS011;55559;48.898;9.184;2022-12-07T07:23:25;7.07;;;4.82;;
49842;SDS011;55559;48.898;9.184;2022-12-07T07:25:54;9.20;;;6.00;;
49842;SDS011;55559;48.898;9.184;2022-12-07T07:28:21;10.65;;;5.47;;
49842;SDS011;55559;48.898;9.184;2022-12-07T07:30:55;11.90;;;5.35;;
49842;SDS011;55559;48.898;9.184;2022-12-07T07:33:23;10.90;;;7.00;;
49842;SDS011;55559;48.898;9.184;2022-12-07T07:35:50;12.07;;;5.70;;
49842;SDS011;55559;48.898;9.184;2022-12-07T07:38:18;11.50;;;5.85;;
49842;SDS011;55559;48.898;9.184;2022-12-07T07:40:46;15.68;;;7.53;;
49842;SDS011;55559;48.898;9.184;2022-12-07T07:43:14;23.52;;;6.88;;
49842;SDS011;55559;48.898;9.184;2022-12-07T07:45:42;16.10;;;7.80;;
49842;SDS011;55559;48.898;9.184;2022-12-07T07:48:10;16.40;;;7.38;;
49842;SDS011;55559;48.898;9.184;2022-12-07T07:50:38;23.52;;;8.93;;
49842;SDS011;55559;48.898;9.184;2022-12-07T07:53:05;16.33;;;8.00;;
49842;SDS011;55559;48.898;9.184;2022-12-07T07:55:34;15.48;;;7.60;;
49842;SDS011;55559;48.898;9.184;2022-12-07T07:58:02;17.85;;;7.68;;
49842;SDS011;55559;48.898;9.184;2022-12-07T08:00:30;12.27;;;6.60;;
49842;SDS011;55559;48.898;9.184;2022-12-07T08:02:58;9.30;;;5.70;;
49842;SDS011;55559;48.898;9.184;2022-12-07T08:05:25;8.93;;;4.82;;
49842;SDS011;55559;48.898;9.184;2022-12-07T08:07:53;12.23;;;6.53;;
49842;SDS011;55559;48.898;9.184;2022-12-07T08:10:20;14.82;;;6.50;;
49842;SDS011;55559;48.898;9.184;2022-12-07T08:12:48;9.10;;;5.32;;
49842;SDS011;55559;48.898;9.184;2022-12-07T08:15:35;7.35;;;5.03;;
49842;SDS011;55559;48.898;9.184;2022-12-07T08:18:04;19.95;;;10.43;;
49842;SDS011;55559;48.898;9.184;2022-12-07T08:20:32;10.48;;;7.25;;
49842;SDS011;55559;48.898;9.184;2022-12-07T08:23:01;17.85;;;6.13;;
49842;SDS011;55559;48.898;9.184;2022-12-07T08:25:29;13.52;;;6.15;;
49842;SDS011;55559;48.898;9.184;2022-12-07T08:27:57;7.50;;;5.80;;
49842;SDS011;55559;48.898;9.184;2022-12-07T08:30:25;13.55;;;6.68;;
49842;SDS011;55559;48.898;9.184;2022-12-07T08:32:55;11.88;;;5.82;;
49842;SDS011;55559;48.898;9.184;2022-12-07T08:35:23;12.43;;;6.22;;
49842;SDS011;55559;48.898;9.184;2022-12-07T08:37:51;9.07;;;5.18;;
49842;SDS011;55559;48.898;9.184;2022-12-07T08:40:19;6.80;;;5.20;;
49842;SDS011;55559;48.898;9.184;2022-12-07T08:42:48;12.45;;;6.15;;
49842;SDS011;55559;48.898;9.184;2022-12-07T08:45:16;8.07;;;5.05;;
49842;SDS011;55559;48.898;9.184;2022-12-07T08:47:45;7.20;;;4.72;;
49842;SDS011;55559;48.898;9.184;2022-12-07T08:50:18;12.45;;;5.13;;
49842;SDS011;55559;48.898;9.184;2022-12-07T08:52:48;10.35;;;6.88;;
49842;SDS011;55559;48.898;9.184;2022-12-07T08:55:17;9.05;;;4.97;;
49842;SDS011;55559;48.898;9.184;2022-12-07T08:57:45;14.48;;;4.65;;
49842;SDS011;55559;48.898;9.184;2022-12-07T09:00:14;6.18;;;4.05;;
49842;SDS011;55559;48.898;9.184;2022-12-07T09:02:42;6.70;;;5.35;;
49842;SDS011;55559;48.898;9.184;2022-12-07T09:05:10;11.20;;;3.85;;
49842;SDS011;55559;48.898;9.184;2022-12-07T09:07:41;9.30;;;4.25;;
49842;SDS011;55559;48.898;9.184;2022-12-07T09:10:10;10.30;;;4.05;;
49842;SDS011;55559;48.898;9.184;2022-12-07T09:12:38;11.60;;;3.72;;
49842;SDS011;55559;48.898;9.184;2022-12-07T09:15:05;5.07;;;2.35;;
49842;SDS011;55559;48.898;9.184;2022-12-07T09:17:33;4.40;;;3.28;;
49842;SDS011;55559;48.898;9.184;2022-12-07T09:20:02;9.40;;;1.77;;
49842;SDS011;55559;48.898;9.184;2022-12-07T09:22:29;8.05;;;3.80;;
49842;SDS011;55559;48.898;9.184;2022-12-07T09:24:59;5.03;;;2.10;;
49842;SDS011;55559;48.898;9.184;2022-12-07T09:27:27;8.95;;;3.40;;
49842;SDS011;55559;48.898;9.184;2022-12-07T09:29:54;3.45;;;2.20;;
49842;SDS011;55559;48.898;9.184;2022-12-07T09:32:22;4.65;;;2.75;;
49842;SDS011;55559;48.898;9.184;2022-12-07T09:34:49;4.93;;;3.78;;
49842;SDS011;55559;48.898;9.184;2022-12-07T09:37:17;9.00;;;3.70;;
49842;SDS011;55559;48.898;9.184;2022-12-07T09:39:44;4.38;;;3.45;;
49842;SDS011;55559;48.898;9.184;2022-12-07T09:42:15;6.72;;;2.97;;
49842;SDS011;55559;48.898;9.184;2022-12-07T09:44:53;9.48;;;2.60;;
49842;SDS011;55559;48.898;9.184;2022-12-07T09:47:20;6.80;;;2.67;;
49842;SDS011;55559;48.898;9.184;2022-12-07T09:49:48;8.50;;;3.83;;
49842;SDS011;55559;48.898;9.184;2022-12-07T09:52:25;8.13;;;3.88;;
49842;SDS011;55559;48.898;9.184;2022-12-07T09:54:55;6.90;;;3.40;;
49842;SDS011;55559;48.898;9.184;2022-12-07T09:57:25;10.85;;;3.60;;
49842;SDS011;55559;48.898;9.184;2022-12-07T09:59:56;5.18;;;3.20;;
49842;SDS011;55559;48.898;9.184;2022-12-07T10:02:34;4.57;;;3.10;;
49842;SDS011;55559;48.898;9.184;2022-12-07T10:05:04;7.80;;;4.18;;
49842;SDS011;55559;48.898;9.184;2022-12-07T10:07:33;7.28;;;2.50;;
49842;SDS011;55559;48.898;9.184;2022-12-07T10:10:02;6.20;;;3.80;;
49842;SDS011;55559;48.898;9.184;2022-12-07T10:12:47;9.45;;;4.03;;
49842;SDS011;55559;48.898;9.184;2022-12-07T10:17:49;6.65;;;3.40;;
49842;SDS011;55559;48.898;9.184;2022-12-07T10:20:19;5.15;;;2.78;;
49842;SDS011;55559;48.898;9.184;2022-12-07T10:22:54;6.30;;;2.33;;
49842;SDS011;55559;48.898;9.184;2022-12-07T10:25:27;4.35;;;1.38;;
49842;SDS011;55559;48.898;9.184;2022-12-07T10:27:59;4.63;;;1.38;;
49842;SDS011;55559;48.898;9.184;2022-12-07T10:30:29;2.20;;;1.38;;
49842;SDS011;55559;48.898;9.184;2022-12-07T10:32:58;6.40;;;1.88;;
49842;SDS011;55559;48.898;9.184;2022-12-07T10:35:26;2.50;;;1.20;;
49842;SDS011;55559;48.898;9.184;2022-12-07T10:37:55;2.97;;;1.20;;
49842;SDS011;55559;48.898;9.184;2022-12-07T10:40:27;4.97;;;1.95;;
49842;SDS011;55559;48.898;9.184;2022-12-07T10:43:17;4.03;;;1.65;;
49842;SDS011;55559;48.898;9.184;2022-12-07T10:46:03;3.90;;;1.70;;
49842;SDS011;55559;48.898;9.184;2022-12-07T10:48:47;3.90;;;1.92;;
49842;SDS011;55559;48.898;9.184;2022-12-07T10:51:21;6.22;;;2.72;;
49842;SDS011;55559;48.898;9.184;2022-12-07T10:53:55;7.03;;;4.65;;
49842;SDS011;55559;48.898;9.184;2022-12-07T10:56:36;3.30;;;2.80;;
49842;SDS011;55559;48.898;9.184;2022-12-07T10:59:30;8.15;;;2.80;;
49842;SDS011;55559;48.898;9.184;2022-12-07T11:02:32;6.93;;;3.10;;
49842;SDS011;55559;48.898;9.184;2022-12-07T11:05:15;6.70;;;3.42;;
49842;SDS011;55559;48.898;9.184;2022-12-07T11:07:51;5.32;;;3.17;;
49842;SDS011;55559;48.898;9.184;2022-12-07T11:10:31;5.72;;;3.67;;
49842;SDS011;55559;48.898;9.184;2022-12-07T11:16:06;5.15;;;2.92;;
49842;SDS011;55559;48.898;9.184;2022-12-07T11:18:46;5.53;;;3.60;;
49842;SDS011;55559;48.898;9.184;2022-12-07T11:21:24;7.03;;;4.43;;
49842;SDS011;55559;48.898;9.184;2022-12-07T11:24:00;6.97;;;4.07;;
49842;SDS011;55559;48.898;9.184;2022-12-07T11:26:34;8.48;;;5.15;;
49842;SDS011;55559;48.898;9.184;2022-12-07T11:29:18;13.98;;;6.13;;
49842;SDS011;55559;48.898;9.184;2022-12-07T11:32:01;10.38;;;5.22;;
49842;SDS011;55559;48.898;9.184;2022-12-07T11:34:39;10.45;;;5.65;;
49842;SDS011;55559;48.898;9.184;2022-12-07T11:37:16;13.18;;;6.07;;
49842;SDS011;55559;48.898;9.184;2022-12-07T11:39:47;8.60;;;5.28;;
49842;SDS011;55559;48.898;9.184;2022-12-07T11:42:20;9.50;;;6.30;;
49842;SDS011;55559;48.898;9.184;2022-12-07T11:44:50;8.48;;;5.43;;
49842;SDS011;55559;48.898;9.184;2022-12-07T11:47:25;9.05;;;5.78;;
49842;SDS011;55559;48.898;9.184;2022-12-07T11:50:11;11.63;;;5.55;;
49842;SDS011;55559;48.898;9.184;2022-12-07T11:52:49;10.27;;;5.68;;
49842;SDS011;55559;48.898;9.184;2022-12-07T11:55:24;10.13;;;5.32;;
49842;SDS011;55559;48.898;9.184;2022-12-07T11:57:59;10.88;;;6.53;;
49842;SDS011;55559;48.898;9.184;2022-12-07T12:00:31;11.73;;;6.65;;
49842;SDS011;55559;48.898;9.184;2022-12-07T12:03:01;11.13;;;6.53;;
49842;SDS011;55559;48.898;9.184;2022-12-07T12:05:35;11.80;;;5.80;;
49842;SDS011;55559;48.898;9.184;2022-12-07T12:08:03;14.80;;;6.85;;
49842;SDS011;55559;48.898;9.184;2022-12-07T12:10:51;10.43;;;6.18;;
49842;SDS011;55559;48.898;9.184;2022-12-07T12:13:40;10.73;;;6.32;;
49842;SDS011;55559;48.898;9.184;2022-12-07T12:16:49;10.18;;;5.75;;
49842;SDS011;55559;48.898;9.184;2022-12-07T12:19:57;12.00;;;5.40;;
49842;SDS011;55559;48.898;9.184;2022-12-07T12:22:32;8.77;;;6.13;;
49842;SDS011;55559;48.898;9.184;2022-12-07T12:25:04;11.52;;;6.00;;
49842;SDS011;55559;48.898;9.184;2022-12-07T12:27:33;8.00;;;5.75;;
49842;SDS011;55559;48.898;9.184;2022-12-07T12:30:04;11.43;;;6.25;;
49842;SDS011;55559;48.898;9.184;2022-12-07T12:32:36;15.05;;;7.05;;
49842;SDS011;55559;48.898;9.184;2022-12-07T12:35:22;12.55;;;6.47;;
49842;SDS011;55559;48.898;9.184;2022-12-07T12:40:53;10.20;;;6.63;;
49842;SDS011;55559;48.898;9.184;2022-12-07T12:58:35;11.02;;;6.50;;
49842;SDS011;55559;48.898;9.184;2022-12-07T13:04:12;11.23;;;7.80;;
49842;SDS011;55559;48.898;9.184;2022-12-07T13:06:48;9.93;;;7.30;;
49842;SDS011;55559;48.898;9.184;2022-12-07T13:09:20;14.13;;;7.95;;
49842;SDS011;55559;48.898;9.184;2022-12-07T13:11:57;10.80;;;7.57;;
49842;SDS011;55559;48.898;9.184;2022-12-07T13:14:51;10.18;;;7.32;;
49842;SDS011;55559;48.898;9.184;2022-12-07T13:20:45;14.77;;;8.88;;
49842;SDS011;55559;48.898;9.184;2022-12-07T13:23:18;14.90;;;9.45;;
49842;SDS011;55559;48.898;9.184;2022-12-07T13:25:54;14.48;;;7.85;;
49842;SDS011;55559;48.898;9.184;2022-12-07T13:28:33;19.45;;;8.15;;
49842;SDS011;55559;48.898;9.184;2022-12-07T13:31:11;21.75;;;10.10;;
49842;SDS011;55559;48.898;9.184;2022-12-07T13:33:46;19.92;;;9.35;;
49842;SDS011;55559;48.898;9.184;2022-12-07T13:36:23;16.23;;;9.77;;
49842;SDS011;55559;48.898;9.184;2022-12-07T13:38:55;14.88;;;7.78;;
49842;SDS011;55559;48.898;9.184;2022-12-07T13:41:24;19.50;;;9.80;;
49842;SDS011;55559;48.898;9.184;2022-12-07T13:43:59;19.08;;;10.40;;
49842;SDS011;55559;48.898;9.184;2022-12-07T13:46:35;22.48;;;11.25;;
49842;SDS011;55559;48.898;9.184;2022-12-07T13:49:18;22.23;;;10.25;;
49842;SDS011;55559;48.898;9.184;2022-12-07T13:51:48;16.50;;;9.88;;
49842;SDS011;55559;48.898;9.184;2022-12-07T13:54:16;16.08;;;9.93;;
49842;SDS011;55559;48.898;9.184;2022-12-07T13:56:47;17.20;;;11.07;;
49842;SDS011;55559;48.898;9.184;2022-12-07T13:59:19;21.85;;;10.45;;
49842;SDS011;55559;48.898;9.184;2022-12-07T14:01:49;14.77;;;8.85;;
49842;SDS011;55559;48.898;9.184;2022-12-07T14:07:18;16.95;;;9.65;;
49842;SDS011;55559;48.898;9.184;2022-12-07T14:09:54;20.95;;;10.30;;
49842;SDS011;55559;48.898;9.184;2022-12-07T14:12:24;18.52;;;10.18;;
49842;SDS011;55559;48.898;9.184;2022-12-07T14:14:54;21.70;;;10.68;;
49842;SDS011;55559;48.898;9.184;2022-12-07T14:17:23;25.08;;;11.60;;
49842;SDS011;55559;48.898;9.184;2022-12-07T14:19:52;20.92;;;11.80;;
49842;SDS011;55559;48.898;9.184;2022-12-07T14:22:23;19.27;;;9.35;;
49842;SDS011;55559;48.898;9.184;2022-12-07T14:24:58;25.08;;;11.63;;
49842;SDS011;55559;48.898;9.184;2022-12-07T14:27:47;17.48;;;9.70;;
49842;SDS011;55559;48.898;9.184;2022-12-07T14:30:23;31.45;;;11.57;;
49842;SDS011;55559;48.898;9.184;2022-12-07T14:32:53;25.85;;;10.48;;
49842;SDS011;55559;48.898;9.184;2022-12-07T14:35:24;17.13;;;10.07;;
49842;SDS011;55559;48.898;9.184;2022-12-07T14:37:51;20.65;;;11.35;;
49842;SDS011;55559;48.898;9.184;2022-12-07T14:40:19;18.45;;;10.52;;
49842;SDS011;55559;48.898;9.184;2022-12-07T14:42:49;18.63;;;10.95;;
49842;SDS011;55559;48.898;9.184;2022-12-07T14:45:20;16.98;;;10.82;;
49842;SDS011;55559;48.898;9.184;2022-12-07T14:47:50;26.88;;;10.57;;
49842;SDS011;55559;48.898;9.184;2022-12-07T14:50:17;18.85;;;10.60;;
49842;SDS011;55559;48.898;9.184;2022-12-07T14:52:48;21.70;;;12.13;;
49842;SDS011;55559;48.898;9.184;2022-12-07T14:55:20;19.00;;;12.10;;
49842;SDS011;55559;48.898;9.184;2022-12-07T14:57:50;24.52;;;11.70;;
49842;SDS011;55559;48.898;9.184;2022-12-07T15:00:19;18.70;;;10.93;;
49842;SDS011;55559;48.898;9.184;2022-12-07T15:02:49;16.77;;;10.60;;
49842;SDS011;55559;48.898;9.184;2022-12-07T15:05:17;22.67;;;10.40;;
49842;SDS011;55559;48.898;9.184;2022-12-07T15:07:46;18.58;;;10.50;;
49842;SDS011;55559;48.898;9.184;2022-12-07T15:10:22;21.92;;;10.35;;
49842;SDS011;55559;48.898;9.184;2022-12-07T15:12:54;14.25;;;8.85;;
49842;SDS011;55559;48.898;9.184;2022-12-07T15:15:42;13.65;;;7.00;;
49842;SDS011;55559;48.898;9.184;2022-12-07T15:18:11;11.82;;;6.60;;
49842;SDS011;55559;48.898;9.184;2022-12-07T15:20:38;11.75;;;7.43;;
49842;SDS011;55559;48.898;9.184;2022-12-07T15:23:05;15.40;;;8.25;;
49842;SDS011;55559;48.898;9.184;2022-12-07T15:25:33;15.65;;;9.82;;
49842;SDS011;55559;48.898;9.184;2022-12-07T15:28:01;15.68;;;9.48;;
49842;SDS011;55559;48.898;9.184;2022-12-07T15:30:29;20.25;;;11.90;;
49842;SDS011;55559;48.898;9.184;2022-12-07T15:32:56;23.40;;;11.98;;
49842;SDS011;55559;48.898;9.184;2022-12-07T15:35:32;23.10;;;12.35;;
49842;SDS011;55559;48.898;9.184;2022-12-07T15:37:59;24.33;;;12.45;;
49842;SDS011;55559;48.898;9.184;2022-12-07T15:40:27;22.25;;;12.40;;
49842;SDS011;55559;48.898;9.184;2022-12-07T15:42:55;23.50;;;11.65;;